sensor_id;sensor_type;location;lat;lon;timestamp;P1;durP1;ratioP1;P2;durP2;ratioP2
73593;SDS011;64760;53.404;23.498;2023-11-22T00:00:15;2.00;;;1.30;;
73593;SDS011;64760;53.404;23.498;2023-11-22T00:03:02;1.48;;;0.75;;
73593;SDS011;64760;53.404;23.498;2023-11-22T00:05:37;6.63;;;2.70;;
73593;SDS011;64760;53.404;23.498;2023-11-22T00:08:04;7.53;;;3.15;;
73593;SDS011;64760;53.404;23.498;2023-11-22T00:10:30;9.20;;;3.33;;
73593;SDS011;64760;53.404;23.498;2023-11-22T00:13:01;10.00;;;3.60;;
73593;SDS011;64760;53.404;23.498;2023-11-22T00:15:27;6.85;;;3.20;;
73593;SDS011;64760;53.404;23.498;2023-11-22T00:17:54;6.35;;;1.80;;
73593;SDS011;64760;53.404;23.498;2023-11-22T00:20:23;7.68;;;3.30;;
73593;SDS011;64760;53.404;23.498;2023-11-22T00:22:50;3.85;;;1.83;;
73593;SDS011;64760;53.404;23.498;2023-11-22T00:25:16;5.72;;;2.22;;
73593;SDS011;64760;53.404;23.498;2023-11-22T00:27:42;5.63;;;2.70;;
73593;SDS011;64760;53.404;23.498;2023-11-22T00:30:09;4.78;;;2.42;;
73593;SDS011;64760;53.404;23.498;2023-11-22T00:32:36;2.08;;;0.80;;
73593;SDS011;64760;53.404;23.498;2023-11-22T00:37:49;3.28;;;1.50;;
73593;SDS011;64760;53.404;23.498;2023-11-22T00:40:15;2.42;;;1.27;;
73593;SDS011;64760;53.404;23.498;2023-11-22T00:42:41;3.85;;;2.13;;
73593;SDS011;64760;53.404;23.498;2023-11-22T00:45:09;1.08;;;0.75;;
73593;SDS011;64760;53.404;23.498;2023-11-22T00:47:37;7.60;;;2.25;;
73593;SDS011;64760;53.404;23.498;2023-11-22T00:50:03;3.88;;;2.15;;
73593;SDS011;64760;53.404;23.498;2023-11-22T00:52:31;5.05;;;1.98;;
73593;SDS011;64760;53.404;23.498;2023-11-22T00:54:57;4.10;;;1.52;;
73593;SDS011;64760;53.404;23.498;2023-11-22T00:57:23;6.13;;;2.13;;
73593;SDS011;64760;53.404;23.498;2023-11-22T00:59:50;5.65;;;2.28;;
73593;SDS011;64760;53.404;23.498;2023-11-22T01:02:16;2.15;;;1.50;;
73593;SDS011;64760;53.404;23.498;2023-11-22T01:04:42;3.33;;;1.05;;
73593;SDS011;64760;53.404;23.498;2023-11-22T01:07:09;1.65;;;0.82;;
73593;SDS011;64760;53.404;23.498;2023-11-22T01:09:36;4.05;;;1.38;;
73593;SDS011;64760;53.404;23.498;2023-11-22T01:12:02;1.50;;;0.75;;
73593;SDS011;64760;53.404;23.498;2023-11-22T01:14:28;3.20;;;1.15;;
73593;SDS011;64760;53.404;23.498;2023-11-22T01:16:56;4.18;;;1.95;;
73593;SDS011;64760;53.404;23.498;2023-11-22T01:19:22;4.53;;;1.70;;
73593;SDS011;64760;53.404;23.498;2023-11-22T01:21:48;4.60;;;2.20;;
73593;SDS011;64760;53.404;23.498;2023-11-22T01:24:15;5.22;;;2.10;;
73593;SDS011;64760;53.404;23.498;2023-11-22T01:26:42;10.43;;;2.00;;
73593;SDS011;64760;53.404;23.498;2023-11-22T01:29:08;2.70;;;1.40;;
73593;SDS011;64760;53.404;23.498;2023-11-22T01:31:38;5.38;;;1.92;;
73593;SDS011;64760;53.404;23.498;2023-11-22T01:34:07;3.08;;;1.17;;
73593;SDS011;64760;53.404;23.498;2023-11-22T01:36:34;1.75;;;1.42;;
73593;SDS011;64760;53.404;23.498;2023-11-22T01:39:01;2.03;;;0.98;;
73593;SDS011;64760;53.404;23.498;2023-11-22T01:41:28;6.22;;;3.00;;
73593;SDS011;64760;53.404;23.498;2023-11-22T01:43:55;5.18;;;2.35;;
73593;SDS011;64760;53.404;23.498;2023-11-22T01:46:25;4.15;;;1.60;;
73593;SDS011;64760;53.404;23.498;2023-11-22T01:48:52;5.88;;;2.20;;
73593;SDS011;64760;53.404;23.498;2023-11-22T01:51:23;2.42;;;1.67;;
73593;SDS011;64760;53.404;23.498;2023-11-22T01:53:52;8.93;;;4.30;;
73593;SDS011;64760;53.404;23.498;2023-11-22T01:56:24;3.75;;;1.65;;
73593;SDS011;64760;53.404;23.498;2023-11-22T02:01:43;5.45;;;3.05;;
73593;SDS011;64760;53.404;23.498;2023-11-22T02:04:09;3.60;;;1.67;;
73593;SDS011;64760;53.404;23.498;2023-11-22T02:06:42;3.90;;;0.85;;
73593;SDS011;64760;53.404;23.498;2023-11-22T02:09:08;3.33;;;1.98;;
73593;SDS011;64760;53.404;23.498;2023-11-22T02:11:40;1.65;;;1.40;;
73593;SDS011;64760;53.404;23.498;2023-11-22T02:14:08;3.38;;;2.60;;
73593;SDS011;64760;53.404;23.498;2023-11-22T02:16:35;1.27;;;1.13;;
73593;SDS011;64760;53.404;23.498;2023-11-22T02:19:03;3.38;;;1.90;;
73593;SDS011;64760;53.404;23.498;2023-11-22T02:23:57;2.00;;;1.58;;
73593;SDS011;64760;53.404;23.498;2023-11-22T02:26:24;1.65;;;1.00;;
73593;SDS011;64760;53.404;23.498;2023-11-22T02:28:50;8.35;;;1.88;;
73593;SDS011;64760;53.404;23.498;2023-11-22T02:31:17;8.93;;;2.50;;
73593;SDS011;64760;53.404;23.498;2023-11-22T02:33:44;2.17;;;1.63;;
73593;SDS011;64760;53.404;23.498;2023-11-22T02:36:10;3.28;;;2.05;;
73593;SDS011;64760;53.404;23.498;2023-11-22T02:38:39;2.90;;;1.92;;
73593;SDS011;64760;53.404;23.498;2023-11-22T02:41:07;4.68;;;2.03;;
73593;SDS011;64760;53.404;23.498;2023-11-22T02:43:35;6.15;;;2.30;;
73593;SDS011;64760;53.404;23.498;2023-11-22T02:46:02;1.95;;;1.10;;
73593;SDS011;64760;53.404;23.498;2023-11-22T02:48:29;8.70;;;1.85;;
73593;SDS011;64760;53.404;23.498;2023-11-22T02:50:56;8.23;;;3.65;;
73593;SDS011;64760;53.404;23.498;2023-11-22T02:53:24;2.25;;;1.50;;
73593;SDS011;64760;53.404;23.498;2023-11-22T02:55:51;2.45;;;2.22;;
73593;SDS011;64760;53.404;23.498;2023-11-22T02:58:17;2.50;;;1.60;;
73593;SDS011;64760;53.404;23.498;2023-11-22T03:00:44;2.97;;;1.25;;
73593;SDS011;64760;53.404;23.498;2023-11-22T03:03:10;2.60;;;1.15;;
73593;SDS011;64760;53.404;23.498;2023-11-22T03:05:39;1.90;;;0.82;;
73593;SDS011;64760;53.404;23.498;2023-11-22T03:08:06;2.80;;;1.40;;
73593;SDS011;64760;53.404;23.498;2023-11-22T03:10:33;3.80;;;1.38;;
73593;SDS011;64760;53.404;23.498;2023-11-22T03:12:59;1.60;;;1.13;;
73593;SDS011;64760;53.404;23.498;2023-11-22T03:15:27;2.40;;;1.48;;
73593;SDS011;64760;53.404;23.498;2023-11-22T03:17:54;1.52;;;0.90;;
73593;SDS011;64760;53.404;23.498;2023-11-22T03:20:20;11.32;;;2.53;;
73593;SDS011;64760;53.404;23.498;2023-11-22T03:22:47;1.33;;;1.23;;
73593;SDS011;64760;53.404;23.498;2023-11-22T03:25:16;2.90;;;1.73;;
73593;SDS011;64760;53.404;23.498;2023-11-22T03:27:44;2.70;;;1.35;;
73593;SDS011;64760;53.404;23.498;2023-11-22T03:30:13;2.03;;;1.80;;
73593;SDS011;64760;53.404;23.498;2023-11-22T03:32:41;1.77;;;1.17;;
73593;SDS011;64760;53.404;23.498;2023-11-22T03:35:08;4.47;;;2.67;;
73593;SDS011;64760;53.404;23.498;2023-11-22T03:37:34;3.67;;;2.50;;
73593;SDS011;64760;53.404;23.498;2023-11-22T03:40:01;2.00;;;1.27;;
73593;SDS011;64760;53.404;23.498;2023-11-22T03:42:29;2.65;;;1.00;;
73593;SDS011;64760;53.404;23.498;2023-11-22T03:44:57;6.28;;;2.72;;
73593;SDS011;64760;53.404;23.498;2023-11-22T03:47:25;3.30;;;1.42;;
73593;SDS011;64760;53.404;23.498;2023-11-22T03:49:52;2.40;;;1.45;;
73593;SDS011;64760;53.404;23.498;2023-11-22T03:52:18;3.25;;;1.95;;
73593;SDS011;64760;53.404;23.498;2023-11-22T03:54:44;3.58;;;2.33;;
73593;SDS011;64760;53.404;23.498;2023-11-22T03:57:10;4.30;;;1.40;;
73593;SDS011;64760;53.404;23.498;2023-11-22T03:59:36;1.45;;;1.35;;
73593;SDS011;64760;53.404;23.498;2023-11-22T04:02:02;1.40;;;1.15;;
73593;SDS011;64760;53.404;23.498;2023-11-22T04:04:28;3.60;;;1.73;;
73593;SDS011;64760;53.404;23.498;2023-11-22T04:06:56;5.07;;;1.85;;
73593;SDS011;64760;53.404;23.498;2023-11-22T04:09:22;5.68;;;2.58;;
73593;SDS011;64760;53.404;23.498;2023-11-22T04:11:48;4.35;;;2.53;;
73593;SDS011;64760;53.404;23.498;2023-11-22T04:14:14;2.67;;;1.67;;
73593;SDS011;64760;53.404;23.498;2023-11-22T04:16:40;1.88;;;1.23;;
73593;SDS011;64760;53.404;23.498;2023-11-22T04:19:07;3.35;;;1.98;;
73593;SDS011;64760;53.404;23.498;2023-11-22T04:21:33;5.25;;;2.00;;
73593;SDS011;64760;53.404;23.498;2023-11-22T04:23:59;3.33;;;2.58;;
73593;SDS011;64760;53.404;23.498;2023-11-22T04:26:25;3.70;;;1.42;;
73593;SDS011;64760;53.404;23.498;2023-11-22T04:28:52;5.95;;;1.15;;
73593;SDS011;64760;53.404;23.498;2023-11-22T04:31:19;3.90;;;2.65;;
73593;SDS011;64760;53.404;23.498;2023-11-22T04:33:45;5.65;;;2.58;;
73593;SDS011;64760;53.404;23.498;2023-11-22T04:36:11;1.45;;;0.90;;
73593;SDS011;64760;53.404;23.498;2023-11-22T04:38:38;2.25;;;1.63;;
73593;SDS011;64760;53.404;23.498;2023-11-22T04:41:04;3.17;;;1.70;;
73593;SDS011;64760;53.404;23.498;2023-11-22T04:43:30;5.38;;;1.00;;
73593;SDS011;64760;53.404;23.498;2023-11-22T04:45:57;3.95;;;1.20;;
73593;SDS011;64760;53.404;23.498;2023-11-22T04:48:24;3.10;;;1.98;;
73593;SDS011;64760;53.404;23.498;2023-11-22T04:50:50;2.78;;;1.65;;
73593;SDS011;64760;53.404;23.498;2023-11-22T04:53:16;1.95;;;1.42;;
73593;SDS011;64760;53.404;23.498;2023-11-22T04:55:43;2.47;;;1.45;;
73593;SDS011;64760;53.404;23.498;2023-11-22T04:58:09;5.68;;;2.42;;
73593;SDS011;64760;53.404;23.498;2023-11-22T05:00:35;3.58;;;2.55;;
73593;SDS011;64760;53.404;23.498;2023-11-22T05:03:02;8.77;;;1.88;;
73593;SDS011;64760;53.404;23.498;2023-11-22T05:05:28;4.82;;;2.88;;
73593;SDS011;64760;53.404;23.498;2023-11-22T05:07:55;3.22;;;1.48;;
73593;SDS011;64760;53.404;23.498;2023-11-22T05:10:21;3.22;;;1.70;;
73593;SDS011;64760;53.404;23.498;2023-11-22T05:12:47;4.15;;;2.33;;
73593;SDS011;64760;53.404;23.498;2023-11-22T05:15:13;3.83;;;2.80;;
73593;SDS011;64760;53.404;23.498;2023-11-22T05:17:40;7.47;;;2.92;;
73593;SDS011;64760;53.404;23.498;2023-11-22T05:20:06;8.13;;;4.30;;
73593;SDS011;64760;53.404;23.498;2023-11-22T05:22:36;6.10;;;3.03;;
73593;SDS011;64760;53.404;23.498;2023-11-22T05:25:02;5.47;;;2.10;;
73593;SDS011;64760;53.404;23.498;2023-11-22T05:27:28;12.00;;;3.45;;
73593;SDS011;64760;53.404;23.498;2023-11-22T05:29:54;5.15;;;2.83;;
73593;SDS011;64760;53.404;23.498;2023-11-22T05:32:21;1.75;;;1.52;;
73593;SDS011;64760;53.404;23.498;2023-11-22T05:34:47;7.68;;;5.18;;
73593;SDS011;64760;53.404;23.498;2023-11-22T05:37:14;10.23;;;4.93;;
73593;SDS011;64760;53.404;23.498;2023-11-22T05:39:40;11.70;;;6.22;;
73593;SDS011;64760;53.404;23.498;2023-11-22T05:42:06;8.63;;;4.70;;
73593;SDS011;64760;53.404;23.498;2023-11-22T05:44:32;9.52;;;2.95;;
73593;SDS011;64760;53.404;23.498;2023-11-22T05:46:59;9.80;;;3.88;;
73593;SDS011;64760;53.404;23.498;2023-11-22T05:49:25;7.22;;;4.05;;
73593;SDS011;64760;53.404;23.498;2023-11-22T05:51:51;11.43;;;3.95;;
73593;SDS011;64760;53.404;23.498;2023-11-22T05:54:17;12.10;;;6.05;;
73593;SDS011;64760;53.404;23.498;2023-11-22T05:56:44;4.10;;;2.22;;
73593;SDS011;64760;53.404;23.498;2023-11-22T05:59:10;7.78;;;4.80;;
73593;SDS011;64760;53.404;23.498;2023-11-22T06:01:36;18.95;;;8.70;;
73593;SDS011;64760;53.404;23.498;2023-11-22T06:04:02;5.28;;;3.03;;
73593;SDS011;64760;53.404;23.498;2023-11-22T06:06:29;7.03;;;3.88;;
73593;SDS011;64760;53.404;23.498;2023-11-22T06:08:56;15.55;;;4.47;;
73593;SDS011;64760;53.404;23.498;2023-11-22T06:11:23;9.30;;;6.50;;
73593;SDS011;64760;53.404;23.498;2023-11-22T06:13:51;13.13;;;5.82;;
73593;SDS011;64760;53.404;23.498;2023-11-22T06:16:17;11.73;;;5.63;;
73593;SDS011;64760;53.404;23.498;2023-11-22T06:18:44;8.13;;;3.63;;
73593;SDS011;64760;53.404;23.498;2023-11-22T06:21:10;3.38;;;1.92;;
73593;SDS011;64760;53.404;23.498;2023-11-22T06:23:36;8.48;;;4.25;;
73593;SDS011;64760;53.404;23.498;2023-11-22T06:26:03;7.45;;;3.92;;
73593;SDS011;64760;53.404;23.498;2023-11-22T06:28:29;5.28;;;3.45;;
73593;SDS011;64760;53.404;23.498;2023-11-22T06:30:56;10.40;;;4.15;;
73593;SDS011;64760;53.404;23.498;2023-11-22T06:33:22;6.68;;;3.00;;
73593;SDS011;64760;53.404;23.498;2023-11-22T06:35:48;8.48;;;3.83;;
73593;SDS011;64760;53.404;23.498;2023-11-22T06:38:15;14.45;;;6.00;;
73593;SDS011;64760;53.404;23.498;2023-11-22T06:40:42;7.85;;;4.53;;
73593;SDS011;64760;53.404;23.498;2023-11-22T06:43:08;7.18;;;3.38;;
73593;SDS011;64760;53.404;23.498;2023-11-22T06:45:34;5.53;;;3.83;;
73593;SDS011;64760;53.404;23.498;2023-11-22T06:48:00;11.60;;;4.82;;
73593;SDS011;64760;53.404;23.498;2023-11-22T06:50:27;11.23;;;5.60;;
73593;SDS011;64760;53.404;23.498;2023-11-22T06:52:53;7.28;;;4.70;;
73593;SDS011;64760;53.404;23.498;2023-11-22T06:55:19;5.05;;;2.22;;
73593;SDS011;64760;53.404;23.498;2023-11-22T06:57:45;9.38;;;4.00;;
73593;SDS011;64760;53.404;23.498;2023-11-22T07:00:11;13.13;;;4.68;;
73593;SDS011;64760;53.404;23.498;2023-11-22T07:02:42;7.68;;;4.82;;
73593;SDS011;64760;53.404;23.498;2023-11-22T07:05:08;8.02;;;4.35;;
73593;SDS011;64760;53.404;23.498;2023-11-22T07:07:35;10.38;;;3.35;;
73593;SDS011;64760;53.404;23.498;2023-11-22T07:10:02;13.25;;;5.22;;
73593;SDS011;64760;53.404;23.498;2023-11-22T07:12:28;7.03;;;3.13;;
73593;SDS011;64760;53.404;23.498;2023-11-22T07:14:55;4.47;;;2.45;;
73593;SDS011;64760;53.404;23.498;2023-11-22T07:17:21;9.20;;;3.45;;
73593;SDS011;64760;53.404;23.498;2023-11-22T07:19:48;6.05;;;3.10;;
73593;SDS011;64760;53.404;23.498;2023-11-22T07:22:17;11.77;;;5.97;;
73593;SDS011;64760;53.404;23.498;2023-11-22T07:24:45;10.77;;;5.13;;
73593;SDS011;64760;53.404;23.498;2023-11-22T07:27:11;20.67;;;8.35;;
73593;SDS011;64760;53.404;23.498;2023-11-22T07:29:41;18.42;;;6.57;;
73593;SDS011;64760;53.404;23.498;2023-11-22T07:32:07;14.85;;;6.03;;
73593;SDS011;64760;53.404;23.498;2023-11-22T07:34:37;8.20;;;3.00;;
73593;SDS011;64760;53.404;23.498;2023-11-22T07:37:05;15.05;;;8.20;;
73593;SDS011;64760;53.404;23.498;2023-11-22T07:42:04;15.10;;;5.38;;
73593;SDS011;64760;53.404;23.498;2023-11-22T07:44:34;21.15;;;9.27;;
73593;SDS011;64760;53.404;23.498;2023-11-22T07:47:01;14.25;;;6.28;;
73593;SDS011;64760;53.404;23.498;2023-11-22T07:49:28;16.33;;;6.15;;
73593;SDS011;64760;53.404;23.498;2023-11-22T07:51:54;8.38;;;3.92;;
73593;SDS011;64760;53.404;23.498;2023-11-22T07:54:22;22.45;;;8.65;;
73593;SDS011;64760;53.404;23.498;2023-11-22T07:56:48;10.63;;;3.85;;
73593;SDS011;64760;53.404;23.498;2023-11-22T07:59:15;10.23;;;4.88;;
73593;SDS011;64760;53.404;23.498;2023-11-22T08:01:44;9.38;;;5.28;;
73593;SDS011;64760;53.404;23.498;2023-11-22T08:04:11;9.63;;;5.70;;
73593;SDS011;64760;53.404;23.498;2023-11-22T08:06:37;6.63;;;4.03;;
73593;SDS011;64760;53.404;23.498;2023-11-22T08:09:04;9.95;;;5.10;;
73593;SDS011;64760;53.404;23.498;2023-11-22T08:11:30;8.07;;;5.18;;
73593;SDS011;64760;53.404;23.498;2023-11-22T08:13:57;12.95;;;6.00;;
73593;SDS011;64760;53.404;23.498;2023-11-22T08:16:25;10.40;;;3.83;;
73593;SDS011;64760;53.404;23.498;2023-11-22T08:18:51;17.52;;;6.50;;
73593;SDS011;64760;53.404;23.498;2023-11-22T08:21:17;14.32;;;7.20;;
73593;SDS011;64760;53.404;23.498;2023-11-22T08:23:45;1.98;;;0.93;;
73593;SDS011;64760;53.404;23.498;2023-11-22T08:26:12;8.85;;;5.05;;
73593;SDS011;64760;53.404;23.498;2023-11-22T08:28:40;15.30;;;8.13;;
73593;SDS011;64760;53.404;23.498;2023-11-22T08:31:06;13.52;;;5.78;;
73593;SDS011;64760;53.404;23.498;2023-11-22T08:33:36;11.20;;;4.78;;
73593;SDS011;64760;53.404;23.498;2023-11-22T08:36:02;5.00;;;3.00;;
73593;SDS011;64760;53.404;23.498;2023-11-22T08:38:30;12.80;;;7.75;;
73593;SDS011;64760;53.404;23.498;2023-11-22T08:41:03;13.52;;;6.85;;
73593;SDS011;64760;53.404;23.498;2023-11-22T08:43:29;11.82;;;3.70;;
73593;SDS011;64760;53.404;23.498;2023-11-22T08:45:57;10.23;;;5.18;;
73593;SDS011;64760;53.404;23.498;2023-11-22T08:48:24;11.10;;;6.10;;
73593;SDS011;64760;53.404;23.498;2023-11-22T08:50:50;10.60;;;5.75;;
73593;SDS011;64760;53.404;23.498;2023-11-22T08:53:19;5.20;;;2.95;;
73593;SDS011;64760;53.404;23.498;2023-11-22T08:55:46;5.57;;;2.53;;
73593;SDS011;64760;53.404;23.498;2023-11-22T08:58:13;7.43;;;3.70;;
73593;SDS011;64760;53.404;23.498;2023-11-22T09:00:39;8.55;;;3.72;;
73593;SDS011;64760;53.404;23.498;2023-11-22T09:03:08;9.27;;;4.55;;
73593;SDS011;64760;53.404;23.498;2023-11-22T09:05:34;15.13;;;5.13;;
73593;SDS011;64760;53.404;23.498;2023-11-22T09:08:00;5.70;;;3.05;;
73593;SDS011;64760;53.404;23.498;2023-11-22T09:10:26;7.82;;;4.25;;
73593;SDS011;64760;53.404;23.498;2023-11-22T09:12:52;10.75;;;5.13;;
73593;SDS011;64760;53.404;23.498;2023-11-22T09:15:18;12.43;;;6.03;;
73593;SDS011;64760;53.404;23.498;2023-11-22T09:17:52;5.68;;;2.72;;
73593;SDS011;64760;53.404;23.498;2023-11-22T09:20:19;13.60;;;5.30;;
73593;SDS011;64760;53.404;23.498;2023-11-22T09:22:47;11.20;;;4.07;;
73593;SDS011;64760;53.404;23.498;2023-11-22T09:25:16;10.63;;;5.15;;
73593;SDS011;64760;53.404;23.498;2023-11-22T09:27:45;6.80;;;4.15;;
73593;SDS011;64760;53.404;23.498;2023-11-22T09:30:15;6.72;;;3.25;;
73593;SDS011;64760;53.404;23.498;2023-11-22T09:33:02;6.25;;;3.28;;
73593;SDS011;64760;53.404;23.498;2023-11-22T09:35:29;9.27;;;4.68;;
73593;SDS011;64760;53.404;23.498;2023-11-22T09:37:55;7.05;;;3.88;;
73593;SDS011;64760;53.404;23.498;2023-11-22T09:40:22;10.18;;;4.13;;
73593;SDS011;64760;53.404;23.498;2023-11-22T09:42:49;13.23;;;6.03;;
73593;SDS011;64760;53.404;23.498;2023-11-22T09:45:17;9.48;;;5.07;;
73593;SDS011;64760;53.404;23.498;2023-11-22T09:47:47;9.35;;;5.82;;
73593;SDS011;64760;53.404;23.498;2023-11-22T09:50:15;9.75;;;4.93;;
73593;SDS011;64760;53.404;23.498;2023-11-22T09:52:44;7.38;;;4.38;;
73593;SDS011;64760;53.404;23.498;2023-11-22T09:55:11;13.45;;;5.40;;
73593;SDS011;64760;53.404;23.498;2023-11-22T09:57:38;23.02;;;6.45;;
73593;SDS011;64760;53.404;23.498;2023-11-22T10:00:05;5.55;;;3.25;;
73593;SDS011;64760;53.404;23.498;2023-11-22T10:02:35;11.38;;;4.72;;
73593;SDS011;64760;53.404;23.498;2023-11-22T10:05:02;6.38;;;3.38;;
73593;SDS011;64760;53.404;23.498;2023-11-22T10:07:30;9.20;;;4.00;;
73593;SDS011;64760;53.404;23.498;2023-11-22T10:09:56;9.15;;;4.40;;
73593;SDS011;64760;53.404;23.498;2023-11-22T10:12:25;13.40;;;5.63;;
73593;SDS011;64760;53.404;23.498;2023-11-22T10:14:55;7.57;;;4.32;;
73593;SDS011;64760;53.404;23.498;2023-11-22T10:17:36;5.43;;;2.60;;
73593;SDS011;64760;53.404;23.498;2023-11-22T10:20:02;11.40;;;4.97;;
73593;SDS011;64760;53.404;23.498;2023-11-22T10:22:29;13.32;;;6.53;;
73593;SDS011;64760;53.404;23.498;2023-11-22T10:24:58;10.93;;;4.22;;
73593;SDS011;64760;53.404;23.498;2023-11-22T10:27:26;15.77;;;7.47;;
73593;SDS011;64760;53.404;23.498;2023-11-22T10:29:52;9.75;;;3.95;;
73593;SDS011;64760;53.404;23.498;2023-11-22T10:32:19;6.90;;;4.45;;
73593;SDS011;64760;53.404;23.498;2023-11-22T10:34:45;7.03;;;3.40;;
73593;SDS011;64760;53.404;23.498;2023-11-22T10:37:11;11.07;;;4.50;;
73593;SDS011;64760;53.404;23.498;2023-11-22T10:39:37;7.22;;;4.20;;
73593;SDS011;64760;53.404;23.498;2023-11-22T10:42:05;10.52;;;5.10;;
73593;SDS011;64760;53.404;23.498;2023-11-22T10:44:31;5.60;;;2.22;;
73593;SDS011;64760;53.404;23.498;2023-11-22T10:46:58;6.10;;;2.92;;
73593;SDS011;64760;53.404;23.498;2023-11-22T10:49:26;7.28;;;3.53;;
73593;SDS011;64760;53.404;23.498;2023-11-22T10:51:52;6.45;;;4.22;;
73593;SDS011;64760;53.404;23.498;2023-11-22T10:54:20;8.75;;;4.28;;
73593;SDS011;64760;53.404;23.498;2023-11-22T10:56:50;4.60;;;2.17;;
73593;SDS011;64760;53.404;23.498;2023-11-22T10:59:22;9.65;;;4.63;;
73593;SDS011;64760;53.404;23.498;2023-11-22T11:04:19;3.10;;;2.15;;
73593;SDS011;64760;53.404;23.498;2023-11-22T11:06:46;6.18;;;3.63;;
73593;SDS011;64760;53.404;23.498;2023-11-22T11:09:15;9.85;;;5.57;;
73593;SDS011;64760;53.404;23.498;2023-11-22T11:11:44;10.20;;;3.10;;
73593;SDS011;64760;53.404;23.498;2023-11-22T11:14:10;4.57;;;3.10;;
73593;SDS011;64760;53.404;23.498;2023-11-22T11:16:38;5.53;;;3.05;;
73593;SDS011;64760;53.404;23.498;2023-11-22T11:19:08;6.45;;;2.00;;
73593;SDS011;64760;53.404;23.498;2023-11-22T11:21:36;7.07;;;3.88;;
73593;SDS011;64760;53.404;23.498;2023-11-22T11:24:02;6.85;;;3.67;;
73593;SDS011;64760;53.404;23.498;2023-11-22T11:26:31;10.98;;;5.75;;
73593;SDS011;64760;53.404;23.498;2023-11-22T11:28:58;10.13;;;4.43;;
73593;SDS011;64760;53.404;23.498;2023-11-22T11:31:24;12.05;;;6.43;;
73593;SDS011;64760;53.404;23.498;2023-11-22T11:33:56;7.38;;;4.18;;
73593;SDS011;64760;53.404;23.498;2023-11-22T11:36:30;8.88;;;4.00;;
73593;SDS011;64760;53.404;23.498;2023-11-22T11:39:00;7.40;;;3.45;;
73593;SDS011;64760;53.404;23.498;2023-11-22T11:41:28;11.02;;;4.65;;
73593;SDS011;64760;53.404;23.498;2023-11-22T11:43:57;9.25;;;3.85;;
73593;SDS011;64760;53.404;23.498;2023-11-22T11:46:24;4.15;;;2.83;;
73593;SDS011;64760;53.404;23.498;2023-11-22T11:51:20;6.25;;;3.88;;
73593;SDS011;64760;53.404;23.498;2023-11-22T11:53:47;6.00;;;2.28;;
73593;SDS011;64760;53.404;23.498;2023-11-22T11:56:13;5.82;;;2.58;;
73593;SDS011;64760;53.404;23.498;2023-11-22T11:58:42;8.98;;;4.90;;
73593;SDS011;64760;53.404;23.498;2023-11-22T12:01:12;11.63;;;6.63;;
73593;SDS011;64760;53.404;23.498;2023-11-22T12:03:38;10.30;;;3.95;;
73593;SDS011;64760;53.404;23.498;2023-11-22T12:06:08;16.63;;;6.75;;
73593;SDS011;64760;53.404;23.498;2023-11-22T12:08:34;18.15;;;7.57;;
73593;SDS011;64760;53.404;23.498;2023-11-22T12:11:03;12.32;;;5.55;;
73593;SDS011;64760;53.404;23.498;2023-11-22T12:13:36;13.70;;;6.55;;
73593;SDS011;64760;53.404;23.498;2023-11-22T12:16:09;14.55;;;5.68;;
73593;SDS011;64760;53.404;23.498;2023-11-22T12:21:05;12.40;;;6.40;;
73593;SDS011;64760;53.404;23.498;2023-11-22T12:23:32;16.70;;;9.07;;
73593;SDS011;64760;53.404;23.498;2023-11-22T12:25:59;9.32;;;4.88;;
73593;SDS011;64760;53.404;23.498;2023-11-22T12:28:27;8.30;;;4.30;;
73593;SDS011;64760;53.404;23.498;2023-11-22T12:30:53;6.90;;;2.10;;
73593;SDS011;64760;53.404;23.498;2023-11-22T12:33:20;8.30;;;4.32;;
73593;SDS011;64760;53.404;23.498;2023-11-22T12:35:47;14.18;;;5.38;;
73593;SDS011;64760;53.404;23.498;2023-11-22T12:38:14;15.13;;;5.75;;
73593;SDS011;64760;53.404;23.498;2023-11-22T12:40:44;12.55;;;4.95;;
73593;SDS011;64760;53.404;23.498;2023-11-22T12:43:12;6.25;;;4.00;;
73593;SDS011;64760;53.404;23.498;2023-11-22T12:45:40;7.85;;;3.85;;
73593;SDS011;64760;53.404;23.498;2023-11-22T12:51:02;14.18;;;6.05;;
73593;SDS011;64760;53.404;23.498;2023-11-22T12:53:38;16.95;;;6.03;;
73593;SDS011;64760;53.404;23.498;2023-11-22T12:56:06;22.65;;;9.65;;
73593;SDS011;64760;53.404;23.498;2023-11-22T12:58:33;22.35;;;8.95;;
73593;SDS011;64760;53.404;23.498;2023-11-22T13:01:01;5.90;;;2.80;;
73593;SDS011;64760;53.404;23.498;2023-11-22T13:03:36;19.83;;;6.60;;
73593;SDS011;64760;53.404;23.498;2023-11-22T13:06:10;11.30;;;5.68;;
73593;SDS011;64760;53.404;23.498;2023-11-22T13:08:37;19.70;;;7.60;;
73593;SDS011;64760;53.404;23.498;2023-11-22T13:11:05;34.13;;;14.38;;
73593;SDS011;64760;53.404;23.498;2023-11-22T13:13:42;28.85;;;10.57;;
73593;SDS011;64760;53.404;23.498;2023-11-22T13:16:19;4.05;;;2.40;;
73593;SDS011;64760;53.404;23.498;2023-11-22T13:18:55;9.80;;;4.75;;
73593;SDS011;64760;53.404;23.498;2023-11-22T13:21:32;14.63;;;6.72;;
73593;SDS011;64760;53.404;23.498;2023-11-22T13:24:12;15.15;;;7.90;;
73593;SDS011;64760;53.404;23.498;2023-11-22T13:26:52;4.68;;;3.03;;
73593;SDS011;64760;53.404;23.498;2023-11-22T13:29:33;6.40;;;5.10;;
73593;SDS011;64760;53.404;23.498;2023-11-22T13:32:11;22.55;;;10.48;;
73593;SDS011;64760;53.404;23.498;2023-11-22T13:34:46;16.90;;;8.88;;
73593;SDS011;64760;53.404;23.498;2023-11-22T13:37:24;15.02;;;7.07;;
73593;SDS011;64760;53.404;23.498;2023-11-22T13:40:00;13.00;;;7.00;;
73593;SDS011;64760;53.404;23.498;2023-11-22T13:42:38;27.98;;;12.00;;
73593;SDS011;64760;53.404;23.498;2023-11-22T13:45:12;36.55;;;15.13;;
73593;SDS011;64760;53.404;23.498;2023-11-22T13:47:43;11.57;;;6.15;;
73593;SDS011;64760;53.404;23.498;2023-11-22T13:50:10;12.45;;;7.53;;
73593;SDS011;64760;53.404;23.498;2023-11-22T13:52:38;16.67;;;9.00;;
73593;SDS011;64760;53.404;23.498;2023-11-22T13:55:04;16.10;;;8.20;;
73593;SDS011;64760;53.404;23.498;2023-11-22T13:57:35;14.80;;;8.00;;
73593;SDS011;64760;53.404;23.498;2023-11-22T14:00:03;20.67;;;10.00;;
73593;SDS011;64760;53.404;23.498;2023-11-22T14:02:39;57.42;;;22.35;;
73593;SDS011;64760;53.404;23.498;2023-11-22T14:05:07;25.95;;;12.60;;
73593;SDS011;64760;53.404;23.498;2023-11-22T14:07:36;60.85;;;24.15;;
73593;SDS011;64760;53.404;23.498;2023-11-22T14:10:04;66.50;;;22.30;;
73593;SDS011;64760;53.404;23.498;2023-11-22T14:12:33;63.35;;;23.95;;
73593;SDS011;64760;53.404;23.498;2023-11-22T14:15:00;52.92;;;22.48;;
73593;SDS011;64760;53.404;23.498;2023-11-22T14:17:28;24.20;;;9.95;;
73593;SDS011;64760;53.404;23.498;2023-11-22T14:19:54;20.80;;;7.88;;
73593;SDS011;64760;53.404;23.498;2023-11-22T14:22:22;29.20;;;13.25;;
73593;SDS011;64760;53.404;23.498;2023-11-22T14:24:49;14.43;;;7.32;;
73593;SDS011;64760;53.404;23.498;2023-11-22T14:27:17;28.83;;;14.13;;
73593;SDS011;64760;53.404;23.498;2023-11-22T14:29:43;35.17;;;15.10;;
73593;SDS011;64760;53.404;23.498;2023-11-22T14:32:13;35.38;;;16.55;;
73593;SDS011;64760;53.404;23.498;2023-11-22T14:34:39;35.88;;;17.20;;
73593;SDS011;64760;53.404;23.498;2023-11-22T14:37:07;43.22;;;23.10;;
73593;SDS011;64760;53.404;23.498;2023-11-22T14:39:33;52.80;;;23.40;;
73593;SDS011;64760;53.404;23.498;2023-11-22T14:42:00;41.50;;;19.85;;
73593;SDS011;64760;53.404;23.498;2023-11-22T14:44:26;56.58;;;22.13;;
73593;SDS011;64760;53.404;23.498;2023-11-22T14:46:53;61.90;;;29.48;;
73593;SDS011;64760;53.404;23.498;2023-11-22T14:49:19;31.27;;;17.85;;
73593;SDS011;64760;53.404;23.498;2023-11-22T14:51:47;45.95;;;20.58;;